Time,TemperatureF,DewpointF,PressureIn,WindDirection,WindDirectionDegrees,WindSpeedMPH,WindSpeedGustMPH,Humidity,HourlyPrecipIn,Conditions,Clouds,dailyrainin,SoftwareType,DateUTC
2013-06-30 00:01:00,75.2,72.7,29.73,SE,142,1.1,0.0,92,0.00,RA,,0.00,WeatherDisplay:10.37,2013-06-30 04:01:00,
2013-06-30 00:06:00,75.2,72.7,29.73,WSW,245,2.3,2.3,92,0.00,RA,,0.00,WeatherDisplay:10.37,2013-06-30 04:06:00,
2013-06-30 00:11:00,75.2,72.7,29.73,ESE,113,1.1,1.1,92,0.00,CLR,,0.00,WeatherDisplay:10.37,2013-06-30 04:11:00,
2013-06-30 00:16:00,75.2,72.7,29.73,ESE,113,0.0,0.0,92,0.00,CLR,,0.00,WeatherDisplay:10.37,2013-06-30 04:16:00,
2013-06-30 00:21:00,75.2,72.7,29.73,ESE,113,0.0,0.0,92,0.00,CLR,,0.00,WeatherDisplay:10.37,2013-06-30 04:21:00,
2013-06-30 00:26:00,75.2,72.7,29.73,ESE,106,0.0,0.0,92,0.00,CLR,,0.00,WeatherDisplay:10.37,2013-06-30 04:26:00,
2013-06-30 00:31:00,75.2,72.7,29.73,ESE,106,0.0,0.0,92,0.00,CLR,,0.00,WeatherDisplay:10.37,2013-06-30 04:31:00,
2013-06-30 00:36:00,75.2,72.7,29.73,ESE,105,0.0,0.0,92,0.00,CLR,,0.00,WeatherDisplay:10.37,2013-06-30 04:36:00,
2013-06-30 00:41:00,75.2,72.7,29.73,ESE,108,0.0,0.0,92,0.00,CLR,,0.00,WeatherDisplay:10.37,2013-06-30 04:41:00,
2013-06-30 00:46:00,75.2,72.7,29.73,East,100,0.0,0.0,92,0.00,CLR,,0.00,WeatherDisplay:10.37,2013-06-30 04:46:00,
2013-06-30 00:51:00,75.1,72.9,29.73,East,101,0.0,0.0,93,0.00,CLR,,0.00,WeatherDisplay:10.37,2013-06-30 04:51:00,
2013-06-30 00:56:00,75.1,72.9,29.73,East,88,1.1,1.1,93,0.00,CLR,,0.00,WeatherDisplay:10.37,2013-06-30 04:56:00,
2013-06-30 01:01:00,75.2,73.0,29.72,SSE,162,1.1,0.0,93,0.00,CLR,,0.00,WeatherDisplay:10.37,2013-06-30 05:01:00,
2013-06-30 01:06:00,75.2,73.0,29.73,SSE,166,0.0,0.0,93,0.00,CLR,,0.00,WeatherDisplay:10.37,2013-06-30 05:06:00,
2013-06-30 01:11:00,75.1,72.9,29.73,SSE,166,0.0,0.0,93,0.00,CLR,,0.00,WeatherDisplay:10.37,2013-06-30 05:11:00,
2013-06-30 01:16:00,75.1,72.9,29.73,South,186,1.0,1.0,93,0.00,CLR,,0.00,WeatherDisplay:10.37,2013-06-30 05:16:00,
2013-06-30 01:21:00,75.0,72.8,29.73,South,184,0.0,0.0,93,0.00,CLR,,0.00,WeatherDisplay:10.37,2013-06-30 05:21:00,
2013-06-30 01:26:00,75.0,72.8,29.73,SSE,160,0.0,0.1,93,0.00,CLR,,0.00,WeatherDisplay:10.37,2013-06-30 05:26:00,
2013-06-30 01:31:00,75.1,72.9,29.73,SSE,160,0.0,0.0,93,0.00,CLR,,0.00,WeatherDisplay:10.37,2013-06-30 05:31:00,
2013-06-30 01:36:00,75.1,72.9,29.73,SE,145,0.0,0.0,93,0.00,CLR,,0.00,WeatherDisplay:10.37,2013-06-30 05:36:00,
2013-06-30 01:41:00,75.2,73.0,29.73,WNW,290,2.3,2.3,93,0.00,CLR,,0.00,WeatherDisplay:10.37,2013-06-30 05:41:00,
2013-06-30 01:46:00,75.2,73.0,29.73,WSW,255,1.1,1.1,93,0.00,CLR,,0.00,WeatherDisplay:10.37,2013-06-30 05:46:00,
2013-06-30 01:51:00,75.3,73.1,29.73,WSW,248,2.3,2.3,93,0.00,CLR,,0.00,WeatherDisplay:10.37,2013-06-30 05:51:00,
2013-06-30 01:56:00,75.3,73.1,29.73,WSW,250,0.0,0.1,93,0.00,CLR,,0.00,WeatherDisplay:10.37,2013-06-30 05:56:00,
2013-06-30 02:01:00,75.4,73.2,29.73,WSW,255,0.0,0.0,93,0.00,CLR,,0.00,WeatherDisplay:10.37,2013-06-30 06:01:00,
2013-06-30 02:06:00,75.4,72.9,29.73,SW,225,3.5,3.5,92,0.00,CLR,,0.00,WeatherDisplay:10.37,2013-06-30 06:06:00,
2013-06-30 02:11:00,75.4,72.9,29.73,NW,306,1.1,0.0,92,0.00,CLR,,0.00,WeatherDisplay:10.37,2013-06-30 06:11:00,
2013-06-30 02:16:00,75.4,72.9,29.73,NW,309,0.0,0.0,92,0.00,CLR,,0.00,WeatherDisplay:10.37,2013-06-30 06:16:00,
2013-06-30 02:21:00,75.4,72.9,29.73,NW,309,0.0,0.0,92,0.00,CLR,,0.00,WeatherDisplay:10.37,2013-06-30 06:21:00,
2013-06-30 02:26:00,75.3,72.8,29.73,NNW,342,1.1,0.0,92,0.00,CLR,,0.00,WeatherDisplay:10.37,2013-06-30 06:26:00,
2013-06-30 02:31:00,75.3,72.8,29.73,SSW,195,0.0,0.3,92,0.00,CLR,,0.00,WeatherDisplay:10.37,2013-06-30 06:31:00,
2013-06-30 02:36:00,75.4,72.9,29.73,East,101,1.1,1.1,92,0.00,CLR,,0.00,WeatherDisplay:10.37,2013-06-30 06:36:00,
2013-06-30 02:41:00,75.4,72.9,29.73,East,99,0.0,0.1,92,0.00,CLR,,0.00,WeatherDisplay:10.37,2013-06-30 06:41:00,
2013-06-30 02:47:00,75.4,72.6,29.73,East,99,0.0,0.0,91,0.00,CLR,,0.00,WeatherDisplay:10.37,2013-06-30 06:47:00,
2013-06-30 02:52:00,75.4,72.9,29.73,SSW,201,0.0,0.0,92,0.00,CLR,,0.00,WeatherDisplay:10.37,2013-06-30 06:52:00,
2013-06-30 02:57:00,75.4,72.9,29.72,ESE,108,1.1,1.1,92,0.00,CLR,,0.00,WeatherDisplay:10.37,2013-06-30 06:57:00,
2013-06-30 03:02:00,75.4,72.9,29.72,SE,145,2.3,2.3,92,0.00,CLR,,0.00,WeatherDisplay:10.37,2013-06-30 07:02:00,
2013-06-30 03:07:00,75.4,72.9,29.72,SE,136,0.0,0.0,92,0.00,CLR,,0.00,WeatherDisplay:10.37,2013-06-30 07:07:00,
2013-06-30 03:12:00,75.4,72.9,29.72,ENE,70,1.1,1.1,92,0.00,CLR,,0.00,WeatherDisplay:10.37,2013-06-30 07:12:00,
2013-06-30 03:17:00,75.4,72.9,29.72,SSW,198,0.0,0.0,92,0.00,CLR,,0.00,WeatherDisplay:10.37,2013-06-30 07:17:00,
2013-06-30 03:22:00,75.4,72.9,29.71,South,172,1.1,1.1,92,0.00,CLR,,0.00,WeatherDisplay:10.37,2013-06-30 07:22:00,
2013-06-30 03:27:00,75.2,72.7,29.71,SSE,158,0.0,0.0,92,0.00,CLR,,0.00,WeatherDisplay:10.37,2013-06-30 07:27:00,
2013-06-30 03:32:00,75.2,72.7,29.71,SSE,150,2.3,2.3,92,0.00,CLR,,0.00,WeatherDisplay:10.37,2013-06-30 07:32:00,
2013-06-30 03:37:00,75.1,72.6,29.71,SW,229,1.1,1.1,92,0.00,CLR,,0.00,WeatherDisplay:10.37,2013-06-30 07:37:00,
2013-06-30 03:42:00,75.0,72.5,29.71,NE,51,1.1,1.1,92,0.00,CLR,,0.00,WeatherDisplay:10.37,2013-06-30 07:42:00,
2013-06-30 03:47:00,74.9,72.4,29.72,NE,51,0.0,0.0,92,0.00,CLR,,0.00,WeatherDisplay:10.37,2013-06-30 07:47:00,
2013-06-30 03:52:00,74.9,72.4,29.71,ENE,65,1.1,1.1,92,0.00,CLR,,0.00,WeatherDisplay:10.37,2013-06-30 07:52:00,
2013-06-30 03:57:00,74.8,72.3,29.71,WSW,255,1.1,1.1,92,0.00,CLR,,0.00,WeatherDisplay:10.37,2013-06-30 07:57:00,
2013-06-30 04:02:00,74.7,72.5,29.71,SE,145,1.1,1.1,93,0.00,CLR,,0.00,WeatherDisplay:10.37,2013-06-30 08:02:00,
2013-06-30 04:07:00,74.7,72.5,29.71,ESE,115,0.0,0.0,93,0.00,CLR,,0.00,WeatherDisplay:10.37,2013-06-30 08:07:00,
2013-06-30 04:12:00,74.8,72.3,29.71,SSE,160,0.0,0.0,92,0.00,CLR,,0.00,WeatherDisplay:10.37,2013-06-30 08:12:00,
2013-06-30 04:17:00,74.7,72.2,29.71,SE,129,1.1,1.1,92,0.00,CLR,,0.00,WeatherDisplay:10.37,2013-06-30 08:17:00,
2013-06-30 04:22:00,74.6,72.1,29.71,East,84,1.1,1.1,92,0.00,CLR,,0.00,WeatherDisplay:10.37,2013-06-30 08:22:00,
2013-06-30 04:27:00,74.6,72.1,29.71,East,82,0.0,0.0,92,0.00,CLR,,0.00,WeatherDisplay:10.37,2013-06-30 08:27:00,
2013-06-30 04:32:00,74.6,72.4,29.71,SE,129,1.1,1.1,93,0.00,CLR,,0.00,WeatherDisplay:10.37,2013-06-30 08:32:00,
2013-06-30 04:37:00,74.5,72.3,29.71,WNW,288,0.0,0.0,93,0.00,CLR,,0.00,WeatherDisplay:10.37,2013-06-30 08:37:00,
2013-06-30 04:42:00,74.5,72.3,29.72,East,90,1.0,1.0,93,0.00,CLR,,0.00,WeatherDisplay:10.37,2013-06-30 08:42:00,
2013-06-30 04:47:00,74.5,72.3,29.72,SSE,156,1.1,0.0,93,0.00,CLR,,0.00,WeatherDisplay:10.37,2013-06-30 08:47:00,
2013-06-30 04:52:00,74.5,72.3,29.72,SW,235,0.0,0.0,93,0.00,CLR,,0.00,WeatherDisplay:10.37,2013-06-30 08:52:00,
2013-06-30 04:57:00,74.4,72.2,29.72,SW,235,0.0,0.0,93,0.00,CLR,,0.00,WeatherDisplay:10.37,2013-06-30 08:57:00,
2013-06-30 05:02:00,74.5,72.3,29.72,SE,143,0.0,0.0,93,0.00,CLR,,0.00,WeatherDisplay:10.37,2013-06-30 09:02:00,
2013-06-30 05:07:00,74.5,72.3,29.72,South,181,1.1,1.1,93,0.00,CLR,,0.00,WeatherDisplay:10.37,2013-06-30 09:07:00,
2013-06-30 05:12:00,74.4,72.2,29.73,SE,138,0.0,0.0,93,0.00,CLR,,0.00,WeatherDisplay:10.37,2013-06-30 09:12:00,
2013-06-30 05:17:00,74.3,72.1,29.73,ENE,70,1.1,1.1,93,0.00,CLR,,0.00,WeatherDisplay:10.37,2013-06-30 09:17:00,
2013-06-30 05:22:00,74.2,72.0,29.73,SSE,160,2.3,2.3,93,0.00,CLR,,0.00,WeatherDisplay:10.37,2013-06-30 09:22:00,
2013-06-30 05:27:00,74.1,71.9,29.73,SE,144,1.1,1.1,93,0.00,CLR,,0.00,WeatherDisplay:10.37,2013-06-30 09:27:00,
2013-06-30 05:32:00,73.9,71.7,29.73,ENE,67,0.0,0.0,93,0.00,CLR,,0.00,WeatherDisplay:10.37,2013-06-30 09:32:00,
2013-06-30 05:37:00,73.9,72.1,29.73,East,91,0.0,0.0,94,0.00,CLR,,0.00,WeatherDisplay:10.37,2013-06-30 09:37:00,
2013-06-30 05:42:00,73.9,72.1,29.73,SW,214,3.5,3.5,94,0.00,CLR,,0.00,WeatherDisplay:10.37,2013-06-30 09:42:00,
2013-06-30 05:47:00,73.9,72.1,29.73,East,98,1.1,1.1,94,0.00,CLR,,0.00,WeatherDisplay:10.37,2013-06-30 09:47:00,
2013-06-30 05:52:00,73.9,72.1,29.73,NNW,332,1.1,1.1,94,0.00,CLR,,0.00,WeatherDisplay:10.37,2013-06-30 09:52:00,
2013-06-30 05:57:00,73.9,72.1,29.74,NNW,330,0.0,0.0,94,0.00,CLR,,0.00,WeatherDisplay:10.37,2013-06-30 09:57:00,
2013-06-30 06:02:00,73.9,72.1,29.74,NNW,331,0.0,0.0,94,0.00,CLR,,0.00,WeatherDisplay:10.37,2013-06-30 10:02:00,
2013-06-30 06:07:00,73.9,72.1,29.74,NE,47,0.0,0.0,94,0.00,CLR,,0.00,WeatherDisplay:10.37,2013-06-30 10:07:00,
2013-06-30 06:12:00,73.9,72.1,29.74,ENE,63,0.0,0.0,94,0.00,CLR,,0.00,WeatherDisplay:10.37,2013-06-30 10:12:00,
2013-06-30 06:17:00,74.0,72.2,29.74,ENE,62,0.0,0.0,94,0.00,CLR,,0.00,WeatherDisplay:10.37,2013-06-30 10:17:00,
2013-06-30 06:22:00,74.0,72.2,29.74,ENE,63,0.0,0.0,94,0.00,CLR,,0.00,WeatherDisplay:10.37,2013-06-30 10:22:00,
2013-06-30 06:27:00,74.0,72.2,29.74,SE,139,0.0,0.0,94,0.00,CLR,,0.00,WeatherDisplay:10.37,2013-06-30 10:27:00,
2013-06-30 06:32:00,74.1,72.3,29.74,SE,129,0.0,0.0,94,0.00,CLR,,0.00,WeatherDisplay:10.37,2013-06-30 10:32:00,
2013-06-30 06:37:00,74.2,72.4,29.75,SE,130,0.0,0.0,94,0.00,CLR,,0.00,WeatherDisplay:10.37,2013-06-30 10:37:00,
2013-06-30 06:42:00,74.2,72.4,29.75,SE,142,1.1,0.0,94,0.00,CLR,,0.00,WeatherDisplay:10.37,2013-06-30 10:42:00,
2013-06-30 06:47:00,74.3,72.5,29.75,ESE,113,1.1,1.1,94,0.00,CLR,,0.00,WeatherDisplay:10.37,2013-06-30 10:47:00,
2013-06-30 06:52:00,74.3,72.5,29.75,SSE,152,1.1,0.0,94,0.00,CLR,,0.00,WeatherDisplay:10.37,2013-06-30 10:52:00,
2013-06-30 06:57:00,74.5,72.7,29.75,SE,143,1.1,1.1,94,0.00,CLR,,0.00,WeatherDisplay:10.37,2013-06-30 10:57:00,
2013-06-30 07:02:00,74.5,72.3,29.76,SE,133,0.0,0.0,93,0.00,CLR,,0.00,WeatherDisplay:10.37,2013-06-30 11:02:00,
2013-06-30 07:07:00,74.6,72.4,29.76,SE,129,0.0,0.0,93,0.00,CLR,,0.00,WeatherDisplay:10.37,2013-06-30 11:07:00,
2013-06-30 07:12:00,74.7,72.5,29.76,SE,129,0.0,0.0,93,0.00,CLR,,0.00,WeatherDisplay:10.37,2013-06-30 11:12:00,
2013-06-30 07:17:00,74.8,72.6,29.77,SE,139,0.0,0.1,93,0.00,CLR,,0.00,WeatherDisplay:10.37,2013-06-30 11:17:00,
2013-06-30 07:23:00,74.9,72.7,29.77,SE,140,1.1,0.0,93,0.00,CLR,,0.00,WeatherDisplay:10.37,2013-06-30 11:23:00,
2013-06-30 07:28:00,74.9,72.7,29.77,SE,129,0.0,0.0,93,0.00,CLR,,0.00,WeatherDisplay:10.37,2013-06-30 11:28:00,
2013-06-30 07:33:00,75.0,72.8,29.77,SE,129,0.0,0.0,93,0.00,CLR,,0.00,WeatherDisplay:10.37,2013-06-30 11:33:00,
2013-06-30 07:38:00,75.0,72.8,29.77,SE,129,0.0,0.0,93,0.00,CLR,,0.00,WeatherDisplay:10.37,2013-06-30 11:38:00,
2013-06-30 07:43:00,75.0,72.8,29.77,SE,129,0.0,0.0,93,0.00,CLR,,0.00,WeatherDisplay:10.37,2013-06-30 11:43:00,
2013-06-30 07:48:00,75.0,72.8,29.77,SSE,150,0.0,0.0,93,0.00,CLR,,0.00,WeatherDisplay:10.37,2013-06-30 11:48:00,
2013-06-30 07:53:00,75.0,72.8,29.77,WSW,250,0.0,0.0,93,0.00,CLR,,0.00,WeatherDisplay:10.37,2013-06-30 11:53:00,
2013-06-30 07:58:00,75.1,72.9,29.77,WSW,250,0.0,0.0,93,0.00,CLR,,0.00,WeatherDisplay:10.37,2013-06-30 11:58:00,
2013-06-30 08:03:00,75.1,72.9,29.78,WSW,250,0.0,0.0,93,0.00,CLR,,0.00,WeatherDisplay:10.37,2013-06-30 12:03:00,
2013-06-30 08:08:00,75.1,72.9,29.78,WSW,250,0.0,0.0,93,0.01,RA,,0.01,WeatherDisplay:10.37,2013-06-30 12:08:00,
2013-06-30 08:13:00,75.0,72.8,29.77,East,94,0.0,0.0,93,0.01,RA,,0.01,WeatherDisplay:10.37,2013-06-30 12:13:00,
2013-06-30 08:18:00,74.9,73.1,29.78,East,94,0.0,0.0,94,0.01,CLR,,0.01,WeatherDisplay:10.37,2013-06-30 12:18:00,
2013-06-30 08:23:00,74.8,73.0,29.77,East,94,0.0,0.0,94,0.01,CLR,,0.01,WeatherDisplay:10.37,2013-06-30 12:23:00,
2013-06-30 08:28:00,74.8,73.0,29.78,ESE,106,0.0,0.0,94,0.01,CLR,,0.01,WeatherDisplay:10.37,2013-06-30 12:28:00,
2013-06-30 08:33:00,74.9,73.4,29.78,ESE,106,0.0,0.0,95,0.01,CLR,,0.01,WeatherDisplay:10.37,2013-06-30 12:33:00,
2013-06-30 08:38:00,74.9,73.4,29.78,SE,132,0.0,0.0,95,0.01,CLR,,0.01,WeatherDisplay:10.37,2013-06-30 12:38:00,
2013-06-30 08:43:00,75.0,73.5,29.78,SE,132,0.0,0.0,95,0.01,CLR,,0.01,WeatherDisplay:10.37,2013-06-30 12:43:00,
2013-06-30 08:48:00,75.1,73.6,29.78,East,84,0.0,0.0,95,0.01,CLR,,0.01,WeatherDisplay:10.37,2013-06-30 12:48:00,
2013-06-30 08:53:00,75.1,73.6,29.78,SE,139,0.0,0.0,95,0.01,CLR,,0.01,WeatherDisplay:10.37,2013-06-30 12:53:00,
2013-06-30 08:58:00,75.2,73.7,29.78,SE,138,0.0,0.0,95,0.01,CLR,,0.01,WeatherDisplay:10.37,2013-06-30 12:58:00,
2013-06-30 09:03:00,75.5,74.0,29.78,East,98,0.0,0.0,95,0.01,CLR,,0.01,WeatherDisplay:10.37,2013-06-30 13:03:00,
2013-06-30 09:08:00,76.0,74.5,29.78,ESE,123,1.0,0.0,95,0.00,CLR,,0.01,WeatherDisplay:10.37,2013-06-30 13:08:00,
2013-06-30 09:13:00,76.4,74.5,29.78,ESE,119,1.1,1.1,94,0.00,CLR,,0.01,WeatherDisplay:10.37,2013-06-30 13:13:00,
2013-06-30 09:18:00,76.8,74.6,29.78,SSE,156,0.0,0.0,93,0.00,CLR,,0.01,WeatherDisplay:10.37,2013-06-30 13:18:00,
2013-06-30 09:23:00,77.1,74.6,29.78,SSE,156,0.0,0.0,92,0.00,CLR,,0.01,WeatherDisplay:10.37,2013-06-30 13:23:00,
2013-06-30 09:28:00,77.3,74.8,29.78,SE,130,0.0,0.0,92,0.00,CLR,,0.01,WeatherDisplay:10.37,2013-06-30 13:28:00,
2013-06-30 09:33:00,77.5,75.0,29.78,SE,129,0.0,0.0,92,0.00,CLR,,0.01,WeatherDisplay:10.37,2013-06-30 13:33:00,
2013-06-30 09:38:00,77.7,74.9,29.78,SSE,165,0.0,0.0,91,0.00,CLR,,0.01,WeatherDisplay:10.37,2013-06-30 13:38:00,
2013-06-30 09:43:00,77.7,74.5,29.78,WSW,250,2.3,2.3,90,0.00,CLR,,0.01,WeatherDisplay:10.37,2013-06-30 13:43:00,
2013-06-30 09:48:00,77.9,74.7,29.78,WSW,248,1.0,1.0,90,0.00,CLR,,0.01,WeatherDisplay:10.37,2013-06-30 13:48:00,
2013-06-30 09:53:00,78.2,74.7,29.78,SW,233,2.3,2.3,89,0.00,CLR,,0.01,WeatherDisplay:10.37,2013-06-30 13:53:00,
2013-06-30 09:58:00,78.5,75.0,29.78,ESE,110,0.0,0.0,89,0.00,CLR,,0.01,WeatherDisplay:10.37,2013-06-30 13:58:00,
2013-06-30 10:03:00,78.9,75.0,29.77,West,267,1.1,1.1,88,0.00,CLR,,0.01,WeatherDisplay:10.37,2013-06-30 14:03:00,
2013-06-30 10:08:00,79.3,75.1,29.77,SW,219,1.1,1.1,87,0.00,CLR,,0.01,WeatherDisplay:10.37,2013-06-30 14:08:00,
2013-06-30 10:13:00,79.7,75.5,29.77,SW,231,0.0,0.0,87,0.00,CLR,,0.01,WeatherDisplay:10.37,2013-06-30 14:13:00,
2013-06-30 10:18:00,79.7,74.8,29.77,SW,236,2.3,2.3,85,0.00,CLR,,0.01,WeatherDisplay:10.37,2013-06-30 14:18:00,
2013-06-30 10:23:00,79.8,74.9,29.77,West,278,1.1,0.0,85,0.00,CLR,,0.01,WeatherDisplay:10.37,2013-06-30 14:23:00,
2013-06-30 10:28:00,79.9,75.0,29.78,WSW,239,2.3,0.0,85,0.00,CLR,,0.01,WeatherDisplay:10.37,2013-06-30 14:28:00,
2013-06-30 10:33:00,80.0,75.1,29.78,WSW,243,0.0,0.0,85,0.00,CLR,,0.01,WeatherDisplay:10.37,2013-06-30 14:33:00,
2013-06-30 10:38:00,80.2,75.3,29.78,North,355,0.0,0.0,85,0.00,CLR,,0.01,WeatherDisplay:10.37,2013-06-30 14:38:00,
2013-06-30 10:43:00,80.4,75.5,29.78,WSW,249,1.1,1.1,85,0.00,CLR,,0.01,WeatherDisplay:10.37,2013-06-30 14:43:00,
2013-06-30 10:48:00,80.3,75.0,29.78,North,1,1.1,1.1,84,0.00,CLR,,0.01,WeatherDisplay:10.37,2013-06-30 14:48:00,
2013-06-30 10:53:00,80.4,75.1,29.78,SSW,207,0.0,0.0,84,0.00,CLR,,0.01,WeatherDisplay:10.37,2013-06-30 14:53:00,
2013-06-30 10:58:00,80.5,75.2,29.78,East,100,1.1,0.0,84,0.00,CLR,,0.01,WeatherDisplay:10.37,2013-06-30 14:58:00,
2013-06-30 11:03:00,80.9,75.6,29.78,NW,323,0.0,0.0,84,0.00,CLR,,0.01,WeatherDisplay:10.37,2013-06-30 15:03:00,
2013-06-30 11:08:00,81.4,75.7,29.78,NE,47,0.0,0.0,83,0.00,CLR,,0.01,WeatherDisplay:10.37,2013-06-30 15:08:00,
2013-06-30 11:13:00,81.5,75.8,29.78,ENE,67,1.1,0.0,83,0.00,CLR,,0.01,WeatherDisplay:10.37,2013-06-30 15:13:00,
2013-06-30 11:18:00,81.6,75.6,29.78,East,96,3.5,3.5,82,0.00,CLR,,0.01,WeatherDisplay:10.37,2013-06-30 15:18:00,
2013-06-30 11:23:00,81.9,75.5,29.78,NNW,331,2.3,0.0,81,0.00,CLR,,0.01,WeatherDisplay:10.37,2013-06-30 15:23:00,
2013-06-30 11:28:00,82.3,75.9,29.78,North,352,1.0,1.0,81,0.00,CLR,,0.01,WeatherDisplay:10.37,2013-06-30 15:28:00,
2013-06-30 11:33:00,82.7,76.3,29.78,ESE,122,1.1,0.0,81,0.00,CLR,,0.01,WeatherDisplay:10.37,2013-06-30 15:33:00,
2013-06-30 11:38:00,83.2,76.0,29.79,North,7,1.1,1.1,79,0.00,CLR,,0.01,WeatherDisplay:10.37,2013-06-30 15:38:00,
2013-06-30 11:43:00,83.2,76.0,29.79,SE,132,1.1,1.1,79,0.00,CLR,,0.01,WeatherDisplay:10.37,2013-06-30 15:43:00,
2013-06-30 11:48:00,83.3,75.7,29.79,NE,34,3.5,3.5,78,0.00,CLR,,0.01,WeatherDisplay:10.37,2013-06-30 15:48:00,
2013-06-30 11:53:00,83.4,75.8,29.79,West,274,1.1,1.1,78,0.00,CLR,,0.01,WeatherDisplay:10.37,2013-06-30 15:53:00,
2013-06-30 11:58:00,83.3,75.7,29.79,West,263,2.3,2.3,78,0.00,CLR,,0.01,WeatherDisplay:10.37,2013-06-30 15:58:00,
2013-06-30 12:03:00,83.4,75.4,29.79,NNE,21,3.5,3.5,77,0.00,CLR,,0.01,WeatherDisplay:10.37,2013-06-30 16:03:00,
2013-06-30 12:08:00,83.7,76.1,29.79,NW,319,3.5,3.5,78,0.00,CLR,,0.01,WeatherDisplay:10.37,2013-06-30 16:08:00,
2013-06-30 12:13:00,83.7,76.1,29.79,East,84,2.3,2.3,78,0.00,CLR,,0.01,WeatherDisplay:10.37,2013-06-30 16:13:00,
2013-06-30 12:18:00,83.4,76.2,29.79,East,98,2.3,2.3,79,0.00,CLR,,0.01,WeatherDisplay:10.37,2013-06-30 16:18:00,
2013-06-30 12:23:00,83.5,75.9,29.78,WNW,282,2.3,2.3,78,0.00,CLR,,0.01,WeatherDisplay:10.37,2013-06-30 16:23:00,
2013-06-30 12:28:00,84.5,76.1,29.78,SE,127,4.0,4.0,76,0.00,CLR,,0.01,WeatherDisplay:10.37,2013-06-30 16:28:00,
2013-06-30 12:33:00,85.3,76.9,29.78,ESE,118,3.5,3.5,76,0.00,CLR,,0.01,WeatherDisplay:10.37,2013-06-30 16:33:00,
2013-06-30 12:38:00,85.8,76.5,29.78,SE,124,5.0,5.0,74,0.00,CLR,,0.01,WeatherDisplay:10.37,2013-06-30 16:38:00,
2013-06-30 12:44:00,85.9,76.2,29.78,ESE,108,4.0,4.0,73,0.00,CLR,,0.01,WeatherDisplay:10.37,2013-06-30 16:44:00,
2013-06-30 12:49:00,86.5,77.2,29.77,West,270,1.1,1.1,74,0.00,CLR,,0.01,WeatherDisplay:10.37,2013-06-30 16:49:00,
2013-06-30 12:54:00,86.5,76.4,29.78,ESE,106,5.8,5.8,72,0.00,CLR,,0.01,WeatherDisplay:10.37,2013-06-30 16:54:00,
2013-06-30 12:59:00,86.0,75.9,29.78,WSW,248,2.3,2.3,72,0.00,CLR,,0.01,WeatherDisplay:10.37,2013-06-30 16:59:00,
2013-06-30 13:04:00,85.7,75.2,29.78,SW,236,4.6,4.6,71,0.00,CLR,,0.01,WeatherDisplay:10.37,2013-06-30 17:04:00,
2013-06-30 13:09:00,85.4,76.2,29.77,SE,146,1.1,1.1,74,0.00,CLR,,0.01,WeatherDisplay:10.37,2013-06-30 17:09:00,
2013-06-30 13:14:00,85.3,75.7,29.77,SSE,155,3.5,3.5,73,0.00,CLR,,0.01,WeatherDisplay:10.37,2013-06-30 17:14:00,
2013-06-30 13:19:00,86.2,75.7,29.77,WSW,238,3.5,3.5,71,0.00,CLR,,0.01,WeatherDisplay:10.37,2013-06-30 17:19:00,
2013-06-30 13:24:00,86.5,76.4,29.77,East,98,3.5,3.5,72,0.00,CLR,,0.01,WeatherDisplay:10.37,2013-06-30 17:24:00,
2013-06-30 13:29:00,87.2,76.6,29.77,SSW,205,2.3,2.3,71,0.00,CLR,,0.01,WeatherDisplay:10.37,2013-06-30 17:29:00,
2013-06-30 13:34:00,87.7,76.7,29.76,WSW,249,2.3,2.3,70,0.00,CLR,,0.01,WeatherDisplay:10.37,2013-06-30 17:34:00,
2013-06-30 13:39:00,87.8,76.4,29.76,South,173,4.0,4.0,69,0.00,CLR,,0.01,WeatherDisplay:10.37,2013-06-30 17:39:00,
2013-06-30 13:44:00,87.8,76.4,29.76,SW,221,4.6,4.6,69,0.00,CLR,,0.01,WeatherDisplay:10.37,2013-06-30 17:44:00,
2013-06-30 13:49:00,88.0,76.5,29.76,SE,144,3.0,3.0,69,0.00,CLR,,0.01,WeatherDisplay:10.37,2013-06-30 17:49:00,
2013-06-30 13:54:00,88.1,76.2,29.77,SW,235,2.3,2.3,68,0.00,CLR,,0.01,WeatherDisplay:10.37,2013-06-30 17:54:00,
2013-06-30 13:59:00,87.5,75.2,29.77,West,263,3.5,3.5,67,0.00,CLR,,0.01,WeatherDisplay:10.37,2013-06-30 17:59:00,
2013-06-30 14:04:00,87.5,76.5,29.77,ENE,78,1.1,1.1,70,0.00,CLR,,0.01,WeatherDisplay:10.37,2013-06-30 18:04:00,
2013-06-30 14:09:00,87.4,76.4,29.77,South,190,2.3,2.3,70,0.00,CLR,,0.01,WeatherDisplay:10.37,2013-06-30 18:09:00,
2013-06-30 14:14:00,87.3,76.3,29.77,ESE,116,3.5,3.5,70,0.00,CLR,,0.01,WeatherDisplay:10.37,2013-06-30 18:14:00,
2013-06-30 14:19:00,87.2,76.2,29.76,ENE,64,2.0,2.0,70,0.00,CLR,,0.01,WeatherDisplay:10.37,2013-06-30 18:19:00,
2013-06-30 14:24:00,86.7,75.7,29.76,WSW,248,1.1,1.1,70,0.00,CLR,,0.01,WeatherDisplay:10.37,2013-06-30 18:24:00,
2013-06-30 14:29:00,86.0,75.9,29.76,East,89,2.3,2.3,72,0.00,CLR,,0.01,WeatherDisplay:10.37,2013-06-30 18:29:00,
2013-06-30 14:34:00,86.0,76.3,29.75,West,271,1.1,1.1,73,0.00,CLR,,0.01,WeatherDisplay:10.37,2013-06-30 18:34:00,
2013-06-30 14:44:00,86.8,76.3,29.75,South,172,2.0,0.0,71,0.00,CLR,,0.01,WeatherDisplay:10.37,2013-06-30 18:44:00,
2013-06-30 14:49:00,87.0,75.6,29.75,SE,145,5.8,5.8,69,0.00,RA,,0.01,WeatherDisplay:10.37,2013-06-30 18:49:00,
2013-06-30 14:54:00,87.6,76.2,29.75,WSW,248,3.5,3.5,69,0.00,RA,,0.01,WeatherDisplay:10.37,2013-06-30 18:54:00,
2013-06-30 14:59:00,88.1,76.6,29.75,SSW,204,3.5,3.5,69,0.00,CLR,,0.01,WeatherDisplay:10.37,2013-06-30 18:59:00,
2013-06-30 15:04:00,88.1,75.8,29.75,ESE,120,8.1,8.1,67,0.00,CLR,,0.01,WeatherDisplay:10.37,2013-06-30 19:04:00,
2013-06-30 15:09:00,87.3,75.9,29.75,SSE,160,3.5,3.5,69,0.00,CLR,,0.01,WeatherDisplay:10.37,2013-06-30 19:09:00,
2013-06-30 15:14:00,86.6,75.2,29.76,NNE,26,4.6,4.6,69,0.00,CLR,,0.01,WeatherDisplay:10.37,2013-06-30 19:14:00,
2013-06-30 15:19:00,86.1,75.6,29.76,ESE,116,4.6,4.6,71,0.00,CLR,,0.01,WeatherDisplay:10.37,2013-06-30 19:19:00,
2013-06-30 15:24:00,85.8,75.3,29.76,SW,225,3.5,3.5,71,0.00,CLR,,0.01,WeatherDisplay:10.37,2013-06-30 19:24:00,
2013-06-30 15:29:00,85.7,75.6,29.77,WNW,283,3.5,3.5,72,0.00,CLR,,0.01,WeatherDisplay:10.37,2013-06-30 19:29:00,
2013-06-30 15:34:00,85.6,75.1,29.77,North,360,3.5,3.5,71,0.00,CLR,,0.01,WeatherDisplay:10.37,2013-06-30 19:34:00,
2013-06-30 15:39:00,86.0,75.9,29.77,WSW,251,3.5,3.5,72,0.00,CLR,,0.01,WeatherDisplay:10.37,2013-06-30 19:39:00,
2013-06-30 15:44:00,86.4,76.3,29.77,East,91,2.3,2.3,72,0.00,CLR,,0.01,WeatherDisplay:10.37,2013-06-30 19:44:00,
2013-06-30 15:50:00,86.3,75.4,29.77,SSW,205,5.0,5.0,70,0.00,CLR,,0.01,WeatherDisplay:10.37,2013-06-30 19:50:00,
2013-06-30 15:55:00,85.6,75.5,29.77,SSE,165,5.8,5.8,72,0.00,CLR,,0.01,WeatherDisplay:10.37,2013-06-30 19:55:00,
2013-06-30 16:00:00,85.2,75.1,29.77,SW,217,3.5,3.5,72,0.00,CLR,,0.01,WeatherDisplay:10.37,2013-06-30 20:00:00,
2013-06-30 16:05:00,84.6,75.0,29.78,SW,232,1.1,1.1,73,0.00,CLR,,0.01,WeatherDisplay:10.37,2013-06-30 20:05:00,
2013-06-30 16:10:00,84.4,74.8,29.78,North,349,3.5,3.5,73,0.00,CLR,,0.01,WeatherDisplay:10.37,2013-06-30 20:10:00,
2013-06-30 16:15:00,84.1,75.3,29.78,WSW,250,3.5,3.5,75,0.00,CLR,,0.01,WeatherDisplay:10.37,2013-06-30 20:15:00,
2013-06-30 16:20:00,84.1,75.7,29.78,ESE,110,3.5,3.5,76,0.00,CLR,,0.01,WeatherDisplay:10.37,2013-06-30 20:20:00,
2013-06-30 16:25:00,84.1,75.7,29.77,South,187,3.5,3.5,76,0.00,CLR,,0.01,WeatherDisplay:10.37,2013-06-30 20:25:00,
2013-06-30 16:30:00,84.3,75.5,29.78,SSW,200,4.6,4.6,75,0.00,CLR,,0.01,WeatherDisplay:10.37,2013-06-30 20:30:00,
2013-06-30 16:35:00,84.2,75.8,29.78,ENE,75,1.1,1.1,76,0.00,CLR,,0.01,WeatherDisplay:10.37,2013-06-30 20:35:00,
2013-06-30 16:40:00,83.9,75.5,29.78,SW,217,3.5,3.5,76,0.00,CLR,,0.01,WeatherDisplay:10.37,2013-06-30 20:40:00,
2013-06-30 16:45:00,83.6,75.6,29.78,NNE,19,1.1,1.1,77,0.00,CLR,,0.01,WeatherDisplay:10.37,2013-06-30 20:45:00,
2013-06-30 16:50:00,83.3,75.3,29.78,NNW,340,2.3,2.3,77,0.00,CLR,,0.01,WeatherDisplay:10.37,2013-06-30 20:50:00,
2013-06-30 16:55:00,83.0,75.4,29.79,WSW,250,1.1,0.0,78,0.00,CLR,,0.01,WeatherDisplay:10.37,2013-06-30 20:55:00,
2013-06-30 17:00:00,82.2,73.9,29.79,WSW,242,3.5,3.5,76,0.00,CLR,,0.01,WeatherDisplay:10.37,2013-06-30 21:00:00,
2013-06-30 17:05:00,80.5,71.8,29.79,WSW,243,1.1,1.1,75,0.00,CLR,,0.01,WeatherDisplay:10.37,2013-06-30 21:05:00,
2013-06-30 17:10:00,79.5,71.3,29.79,WNW,302,1.1,0.0,76,0.00,CLR,,0.01,WeatherDisplay:10.37,2013-06-30 21:10:00,
2013-06-30 17:15:00,79.1,71.3,29.79,WNW,291,1.1,0.0,77,0.00,CLR,,0.01,WeatherDisplay:10.37,2013-06-30 21:15:00,
2013-06-30 17:20:00,79.1,71.3,29.79,NNW,344,0.0,0.0,77,0.00,CLR,,0.01,WeatherDisplay:10.37,2013-06-30 21:20:00,
2013-06-30 17:25:00,78.8,71.4,29.78,West,278,1.1,1.1,78,0.00,CLR,,0.01,WeatherDisplay:10.37,2013-06-30 21:25:00,
2013-06-30 17:30:00,78.7,71.3,29.79,WSW,238,2.3,2.3,78,0.00,CLR,,0.01,WeatherDisplay:10.37,2013-06-30 21:30:00,
2013-06-30 17:35:00,78.3,70.9,29.79,West,274,2.0,2.0,78,0.00,CLR,,0.01,WeatherDisplay:10.37,2013-06-30 21:35:00,
2013-06-30 17:40:00,77.8,70.4,29.79,WNW,285,2.3,2.3,78,0.00,CLR,,0.01,WeatherDisplay:10.37,2013-06-30 21:40:00,
2013-06-30 17:45:00,77.7,70.7,29.79,West,274,0.0,0.0,79,0.00,CLR,,0.01,WeatherDisplay:10.37,2013-06-30 21:45:00,
2013-06-30 17:50:00,77.3,70.3,29.80,WSW,245,2.3,2.3,79,0.00,CLR,,0.01,WeatherDisplay:10.37,2013-06-30 21:50:00,
2013-06-30 17:55:00,76.8,70.2,29.79,WSW,250,2.3,2.3,80,0.00,CLR,,0.01,WeatherDisplay:10.37,2013-06-30 21:55:00,
2013-06-30 18:00:00,76.5,69.9,29.79,ESE,117,2.3,2.3,80,0.00,CLR,,0.01,WeatherDisplay:10.37,2013-06-30 22:00:00,
2013-06-30 18:05:00,76.5,69.9,29.80,WSW,245,0.0,0.1,80,0.00,CLR,,0.01,WeatherDisplay:10.37,2013-06-30 22:05:00,
2013-06-30 18:10:00,76.8,70.2,29.80,SE,128,0.0,0.0,80,0.00,CLR,,0.01,WeatherDisplay:10.37,2013-06-30 22:10:00,
2013-06-30 18:15:00,77.1,70.5,29.79,SSW,210,1.1,1.1,80,0.00,CLR,,0.01,WeatherDisplay:10.37,2013-06-30 22:15:00,
2013-06-30 18:20:00,77.4,70.7,29.79,SW,230,0.0,0.0,80,0.00,CLR,,0.01,WeatherDisplay:10.37,2013-06-30 22:20:00,
2013-06-30 18:25:00,77.9,71.2,29.80,SE,138,1.1,0.0,80,0.00,CLR,,0.01,WeatherDisplay:10.37,2013-06-30 22:25:00,
2013-06-30 18:30:00,78.1,71.4,29.80,WSW,252,1.1,0.0,80,0.00,CLR,,0.01,WeatherDisplay:10.37,2013-06-30 22:30:00,
2013-06-30 18:35:00,78.0,71.7,29.80,WSW,253,0.0,0.0,81,0.00,CLR,,0.01,WeatherDisplay:10.37,2013-06-30 22:35:00,
2013-06-30 18:40:00,77.9,71.6,29.80,SW,226,3.5,3.5,81,0.00,CLR,,0.01,WeatherDisplay:10.37,2013-06-30 22:40:00,
2013-06-30 18:45:00,77.3,71.7,29.80,WSW,248,0.0,0.0,83,0.00,CLR,,0.01,WeatherDisplay:10.37,2013-06-30 22:45:00,
2013-06-30 18:50:00,76.8,71.9,29.80,WSW,245,3.5,3.5,85,0.01,RA,,0.02,WeatherDisplay:10.37,2013-06-30 22:50:00,
2013-06-30 18:55:00,76.1,71.9,29.80,South,174,0.0,0.0,87,0.01,RA,,0.02,WeatherDisplay:10.37,2013-06-30 22:55:00,
2013-06-30 19:00:00,75.7,71.9,29.80,South,172,0.0,0.0,88,0.01,CLR,,0.02,WeatherDisplay:10.37,2013-06-30 23:00:00,
2013-06-30 19:05:00,75.3,71.8,29.80,South,172,0.0,0.0,89,0.01,CLR,,0.02,WeatherDisplay:10.37,2013-06-30 23:05:00,
2013-06-30 19:10:00,75.1,72.0,29.81,South,172,0.0,0.0,90,0.01,CLR,,0.02,WeatherDisplay:10.37,2013-06-30 23:10:00,
2013-06-30 19:15:00,74.9,72.1,29.80,SSE,160,0.0,0.0,91,0.01,CLR,,0.02,WeatherDisplay:10.37,2013-06-30 23:15:00,
2013-06-30 19:20:00,74.7,71.9,29.80,SSE,161,0.0,0.0,91,0.01,CLR,,0.02,WeatherDisplay:10.37,2013-06-30 23:20:00,
2013-06-30 19:25:00,74.6,72.1,29.81,SSE,162,0.0,0.0,92,0.01,CLR,,0.02,WeatherDisplay:10.37,2013-06-30 23:25:00,
2013-06-30 19:30:00,74.6,72.4,29.81,SSE,162,0.0,0.0,93,0.01,CLR,,0.02,WeatherDisplay:10.37,2013-06-30 23:30:00,
2013-06-30 19:35:00,74.5,72.3,29.81,SSW,193,0.0,0.0,93,0.01,CLR,,0.02,WeatherDisplay:10.37,2013-06-30 23:35:00,
2013-06-30 19:40:00,74.4,72.2,29.81,SSW,193,0.0,0.0,93,0.01,CLR,,0.02,WeatherDisplay:10.37,2013-06-30 23:40:00,
2013-06-30 19:45:00,74.3,72.1,29.81,SSE,155,2.3,2.3,93,0.01,CLR,,0.02,WeatherDisplay:10.37,2013-06-30 23:45:00,
2013-06-30 19:50:00,74.2,72.0,29.81,WSW,245,0.0,0.0,93,0.00,CLR,,0.02,WeatherDisplay:10.37,2013-06-30 23:50:00,
2013-06-30 19:55:00,74.1,71.9,29.81,SW,222,2.3,0.0,93,0.01,RA,,0.03,WeatherDisplay:10.37,2013-06-30 23:55:00,
2013-06-30 20:00:00,74.1,71.9,29.81,SW,222,0.0,0.0,93,0.01,RA,,0.03,WeatherDisplay:10.37,2013-07-01 00:00:00,
2013-06-30 20:05:00,74.0,72.2,29.82,SW,222,0.0,0.0,94,0.01,,,0.04,WeatherDisplay:10.37,2013-07-01 00:05:00,
2013-06-30 20:10:00,73.9,72.1,29.82,SW,225,0.0,0.1,94,0.02,RA,,0.04,WeatherDisplay:10.37,2013-07-01 00:10:00,
2013-06-30 20:15:00,73.9,72.1,29.82,WSW,245,2.3,0.0,94,0.03,RA,,0.05,WeatherDisplay:10.37,2013-07-01 00:15:00,
2013-06-30 20:20:00,73.9,72.1,29.83,NE,56,0.0,0.0,94,0.03,RA,,0.05,WeatherDisplay:10.37,2013-07-01 00:20:00,
2013-06-30 20:26:00,73.7,71.9,29.83,WSW,248,0.0,0.0,94,0.03,,,0.05,WeatherDisplay:10.37,2013-07-01 00:26:00,
2013-06-30 20:31:00,73.5,71.7,29.82,East,79,1.1,0.0,94,0.03,CLR,,0.05,WeatherDisplay:10.37,2013-07-01 00:31:00,
2013-06-30 20:36:00,73.4,71.9,29.83,ENE,76,1.1,1.1,95,0.03,CLR,,0.05,WeatherDisplay:10.37,2013-07-01 00:36:00,
2013-06-30 20:41:00,73.3,71.8,29.82,NE,37,0.0,0.0,95,0.03,CLR,,0.05,WeatherDisplay:10.37,2013-07-01 00:41:00,
2013-06-30 20:46:00,73.2,71.7,29.82,West,262,0.0,0.0,95,0.03,CLR,,0.05,WeatherDisplay:10.37,2013-07-01 00:46:00,
2013-06-30 20:51:00,73.1,71.6,29.82,West,262,0.0,0.0,95,0.03,CLR,,0.05,WeatherDisplay:10.37,2013-07-01 00:51:00,
2013-06-30 20:56:00,72.9,71.4,29.83,West,260,0.0,0.0,95,0.02,CLR,,0.05,WeatherDisplay:10.37,2013-07-01 00:56:00,
2013-06-30 21:01:00,72.9,71.4,29.83,WSW,242,1.1,1.1,95,0.03,RA,,0.06,WeatherDisplay:10.37,2013-07-01 01:01:00,
2013-06-30 21:06:00,72.8,71.3,29.83,WSW,243,0.0,0.0,95,0.02,RA,,0.06,WeatherDisplay:10.37,2013-07-01 01:06:00,
2013-06-30 21:11:00,72.7,71.2,29.83,SW,236,0.0,0.0,95,0.03,RA,,0.07,WeatherDisplay:10.37,2013-07-01 01:11:00,
2013-06-30 21:16:00,72.7,71.2,29.82,NE,45,1.1,1.1,95,0.02,RA,,0.07,WeatherDisplay:10.37,2013-07-01 01:16:00,
2013-06-30 21:21:00,72.7,71.5,29.83,NE,47,1.1,0.0,96,0.02,,,0.07,WeatherDisplay:10.37,2013-07-01 01:21:00,
2013-06-30 21:26:00,72.6,71.1,29.83,NNE,22,0.0,0.0,95,0.03,RA,,0.08,WeatherDisplay:10.37,2013-07-01 01:26:00,
2013-06-30 21:31:00,72.5,71.3,29.83,SSE,149,2.0,2.0,96,0.04,RA,,0.09,WeatherDisplay:10.37,2013-07-01 01:31:00,
2013-06-30 21:36:00,72.4,71.2,29.84,WSW,245,1.1,1.1,96,0.04,RA,,0.09,WeatherDisplay:10.37,2013-07-01 01:36:00,
2013-06-30 21:41:00,72.3,71.1,29.84,West,262,1.0,0.0,96,0.05,RA,,0.10,WeatherDisplay:10.37,2013-07-01 01:41:00,
2013-06-30 21:46:00,72.3,71.1,29.85,East,90,0.0,0.0,96,0.06,RA,,0.11,WeatherDisplay:10.37,2013-07-01 01:46:00,
2013-06-30 21:51:00,72.3,71.1,29.85,ESE,112,1.0,1.0,96,0.06,RA,,0.11,WeatherDisplay:10.37,2013-07-01 01:51:00,
2013-06-30 21:56:00,72.1,70.9,29.85,East,94,0.0,0.0,96,0.07,RA,,0.12,WeatherDisplay:10.37,2013-07-01 01:56:00,
2013-06-30 22:01:00,71.9,70.7,29.85,ESE,111,1.1,1.1,96,0.07,RA,,0.13,WeatherDisplay:10.37,2013-07-01 02:01:00,
2013-06-30 22:06:00,71.6,70.1,29.85,ENE,76,2.3,2.3,95,0.08,RA,,0.14,WeatherDisplay:10.37,2013-07-01 02:06:00,
2013-06-30 22:11:00,71.4,69.9,29.85,East,79,1.1,1.1,95,0.07,RA,,0.14,WeatherDisplay:10.37,2013-07-01 02:11:00,
2013-06-30 22:16:00,71.3,69.8,29.85,South,175,3.5,3.5,95,0.07,CLR,,0.14,WeatherDisplay:10.37,2013-07-01 02:16:00,
2013-06-30 22:21:00,71.2,70.0,29.85,NW,323,1.0,0.0,96,0.08,RA,,0.15,WeatherDisplay:10.37,2013-07-01 02:21:00,
2013-06-30 22:26:00,71.2,70.0,29.86,ESE,103,1.1,1.1,96,0.08,RA,,0.16,WeatherDisplay:10.37,2013-07-01 02:26:00,
2013-06-30 22:31:00,71.1,69.9,29.86,ESE,103,0.0,0.0,96,0.08,RA,,0.17,WeatherDisplay:10.37,2013-07-01 02:31:00,
2013-06-30 22:36:00,71.1,69.9,29.86,WNW,293,0.0,0.0,96,0.10,RA,,0.19,WeatherDisplay:10.37,2013-07-01 02:36:00,
2013-06-30 22:41:00,71.2,70.0,29.86,WNW,291,0.0,0.0,96,0.11,RA,,0.21,WeatherDisplay:10.37,2013-07-01 02:41:00,
2013-06-30 22:46:00,71.2,70.0,29.86,SSE,162,2.3,2.3,96,0.12,RA,,0.23,WeatherDisplay:10.37,2013-07-01 02:46:00,
2013-06-30 22:51:00,71.2,70.0,29.86,SSE,155,3.5,3.5,96,0.13,RA,,0.24,WeatherDisplay:10.37,2013-07-01 02:51:00,
2013-06-30 22:56:00,71.1,69.9,29.86,SE,139,1.0,1.0,96,0.13,RA,,0.25,WeatherDisplay:10.37,2013-07-01 02:56:00,
2013-06-30 23:01:00,71.1,69.9,29.86,SE,138,1.1,1.1,96,0.14,RA,,0.27,WeatherDisplay:10.37,2013-07-01 03:01:00,
2013-06-30 23:06:00,71.0,70.1,29.86,ESE,111,3.5,3.5,97,0.14,RA,,0.28,WeatherDisplay:10.37,2013-07-01 03:06:00,
2013-06-30 23:11:00,71.0,69.8,29.86,SSE,152,1.1,0.0,96,0.14,RA,,0.28,WeatherDisplay:10.37,2013-07-01 03:11:00,
2013-06-30 23:16:00,70.9,69.7,29.86,SE,130,1.0,1.0,96,0.15,RA,,0.29,WeatherDisplay:10.37,2013-07-01 03:16:00,
2013-06-30 23:21:00,70.8,69.6,29.86,East,88,1.1,1.1,96,0.15,RA,,0.30,WeatherDisplay:10.37,2013-07-01 03:21:00,
2013-06-30 23:26:00,70.7,69.5,29.86,South,169,3.5,3.5,96,0.14,RA,,0.30,WeatherDisplay:10.37,2013-07-01 03:26:00,
2013-06-30 23:31:00,70.7,69.8,29.86,ESE,110,1.1,1.1,97,0.14,RA,,0.31,WeatherDisplay:10.37,2013-07-01 03:31:00,
2013-06-30 23:36:00,70.7,69.8,29.85,East,86,1.1,1.1,97,0.13,RA,,0.32,WeatherDisplay:10.37,2013-07-01 03:36:00,
2013-06-30 23:41:00,70.7,69.8,29.85,East,86,0.0,0.0,97,0.12,RA,,0.33,WeatherDisplay:10.37,2013-07-01 03:41:00,
2013-06-30 23:46:00,70.7,69.8,29.85,East,86,0.0,0.0,97,0.10,RA,,0.33,WeatherDisplay:10.37,2013-07-01 03:46:00,
2013-06-30 23:51:00,70.7,69.8,29.85,East,86,0.0,0.0,97,0.09,,,0.33,WeatherDisplay:10.37,2013-07-01 03:51:00,
2013-06-30 23:56:00,70.7,69.8,29.85,East,86,0.0,0.0,97,0.08,CLR,,0.33,WeatherDisplay:10.37,2013-07-01 03:56:00,